sensor_id;sensor_type;location;lat;lon;timestamp;pressure;altitude;pressure_sealevel;temperature;humidity
61014;BME280;46899;47.542;19.082;2023-04-07T00:00:53;100249.41;;;3.13;100.00
61014;BME280;46899;47.542;19.082;2023-04-07T00:03:56;100244.28;;;3.18;100.00
61014;BME280;46899;47.542;19.082;2023-04-07T00:06:59;100241.66;;;3.24;100.00
61014;BME280;46899;47.542;19.082;2023-04-07T00:10:02;100244.25;;;3.21;100.00
61014;BME280;46899;47.542;19.082;2023-04-07T00:13:04;100247.75;;;3.09;100.00
61014;BME280;46899;47.542;19.082;2023-04-07T00:16:07;100248.62;;;3.07;100.00
61014;BME280;46899;47.542;19.082;2023-04-07T00:19:09;100241.75;;;3.07;100.00
61014;BME280;46899;47.542;19.082;2023-04-07T00:22:12;100236.59;;;3.09;100.00
61014;BME280;46899;47.542;19.082;2023-04-07T00:25:14;100228.06;;;3.07;100.00
61014;BME280;46899;47.542;19.082;2023-04-07T00:28:17;100223.75;;;3.12;100.00
61014;BME280;46899;47.542;19.082;2023-04-07T00:31:19;100231.50;;;3.04;100.00
61014;BME280;46899;47.542;19.082;2023-04-07T00:34:22;100227.22;;;3.08;100.00
61014;BME280;46899;47.542;19.082;2023-04-07T00:37:25;100220.34;;;3.07;100.00
61014;BME280;46899;47.542;19.082;2023-04-07T00:40:28;100227.19;;;3.06;100.00
61014;BME280;46899;47.542;19.082;2023-04-07T00:43:30;100222.06;;;3.08;100.00
61014;BME280;46899;47.542;19.082;2023-04-07T00:46:33;100226.34;;;3.07;100.00
61014;BME280;46899;47.542;19.082;2023-04-07T00:49:35;100228.88;;;3.15;100.00
61014;BME280;46899;47.542;19.082;2023-04-07T00:52:38;100225.38;;;3.23;100.00
61014;BME280;46899;47.542;19.082;2023-04-07T00:55:41;100218.56;;;3.16;99.94
61014;BME280;46899;47.542;19.082;2023-04-07T00:58:43;100222.00;;;3.17;100.00
61014;BME280;46899;47.542;19.082;2023-04-07T01:02:01;100220.31;;;3.14;100.00
61014;BME280;46899;47.542;19.082;2023-04-07T01:05:14;100216.03;;;3.15;100.00
61014;BME280;46899;47.542;19.082;2023-04-07T01:08:32;100218.50;;;3.27;100.00
61014;BME280;46899;47.542;19.082;2023-04-07T01:11:42;100221.09;;;3.22;98.80
61014;BME280;46899;47.542;19.082;2023-04-07T01:14:49;100221.19;;;3.12;99.92
61014;BME280;46899;47.542;19.082;2023-04-07T01:17:54;100202.28;;;3.17;100.00
61014;BME280;46899;47.542;19.082;2023-04-07T01:21:01;100206.56;;;3.17;100.00
61014;BME280;46899;47.542;19.082;2023-04-07T01:24:21;100202.28;;;3.16;100.00
61014;BME280;46899;47.542;19.082;2023-04-07T01:27:40;100199.59;;;3.31;98.33
61014;BME280;46899;47.542;19.082;2023-04-07T01:30:44;100201.34;;;3.26;100.00
61014;BME280;46899;47.542;19.082;2023-04-07T01:33:47;100198.84;;;3.18;98.90
61014;BME280;46899;47.542;19.082;2023-04-07T01:36:53;100199.69;;;3.22;98.60
61014;BME280;46899;47.542;19.082;2023-04-07T01:39:56;100194.50;;;3.26;98.43
61014;BME280;46899;47.542;19.082;2023-04-07T01:42:59;100197.03;;;3.34;97.71
61014;BME280;46899;47.542;19.082;2023-04-07T01:46:02;100193.66;;;3.26;97.81
61014;BME280;46899;47.542;19.082;2023-04-07T01:49:05;100197.94;;;3.24;98.29
61014;BME280;46899;47.542;19.082;2023-04-07T01:52:08;100191.97;;;3.25;97.31
61014;BME280;46899;47.542;19.082;2023-04-07T01:55:12;100196.22;;;3.26;98.34
61014;BME280;46899;47.542;19.082;2023-04-07T01:58:15;100191.12;;;3.20;99.33
61014;BME280;46899;47.542;19.082;2023-04-07T02:01:18;100197.16;;;3.14;98.53
61014;BME280;46899;47.542;19.082;2023-04-07T02:04:23;100190.34;;;3.09;99.00
61014;BME280;46899;47.542;19.082;2023-04-07T02:07:28;100188.66;;;3.08;99.99
61014;BME280;46899;47.542;19.082;2023-04-07T02:10:36;100192.09;;;3.05;99.65
61014;BME280;46899;47.542;19.082;2023-04-07T02:13:39;100190.44;;;2.95;100.00
61014;BME280;46899;47.542;19.082;2023-04-07T02:16:44;100191.31;;;2.99;100.00
61014;BME280;46899;47.542;19.082;2023-04-07T02:19:50;100185.31;;;2.95;99.89
61014;BME280;46899;47.542;19.082;2023-04-07T02:22:55;100185.31;;;2.95;100.00
61014;BME280;46899;47.542;19.082;2023-04-07T02:25:57;100189.59;;;2.96;99.20
61014;BME280;46899;47.542;19.082;2023-04-07T02:29:01;100185.31;;;2.92;100.00
61014;BME280;46899;47.542;19.082;2023-04-07T02:32:04;100193.06;;;2.91;98.83
61014;BME280;46899;47.542;19.082;2023-04-07T02:35:07;100187.91;;;2.94;100.00
61014;BME280;46899;47.542;19.082;2023-04-07T02:38:10;100186.25;;;2.87;100.00
61014;BME280;46899;47.542;19.082;2023-04-07T02:41:13;100187.06;;;2.89;100.00
61014;BME280;46899;47.542;19.082;2023-04-07T02:44:15;100177.62;;;2.97;100.00
61014;BME280;46899;47.542;19.082;2023-04-07T02:47:17;100184.41;;;3.04;100.00
61014;BME280;46899;47.542;19.082;2023-04-07T02:50:20;100189.56;;;3.04;99.66
61014;BME280;46899;47.542;19.082;2023-04-07T02:53:23;100193.78;;;3.08;98.79
61014;BME280;46899;47.542;19.082;2023-04-07T02:56:25;100191.97;;;3.20;98.34
61014;BME280;46899;47.542;19.082;2023-04-07T02:59:28;100192.87;;;3.16;97.88
61014;BME280;46899;47.542;19.082;2023-04-07T03:02:31;100193.78;;;3.08;98.57
61014;BME280;46899;47.542;19.082;2023-04-07T03:05:34;100180.94;;;3.08;99.00
61014;BME280;46899;47.542;19.082;2023-04-07T03:08:37;100180.00;;;3.16;99.36
61014;BME280;46899;47.542;19.082;2023-04-07T03:11:40;100185.13;;;3.21;98.79
61014;BME280;46899;47.542;19.082;2023-04-07T03:14:42;100182.53;;;3.21;100.00
61014;BME280;46899;47.542;19.082;2023-04-07T03:17:45;100183.37;;;3.23;98.77
61014;BME280;46899;47.542;19.082;2023-04-07T03:20:48;100178.34;;;3.12;99.29
61014;BME280;46899;47.542;19.082;2023-04-07T03:23:51;100168.94;;;3.10;99.67
61014;BME280;46899;47.542;19.082;2023-04-07T03:26:54;100179.22;;;3.07;99.99
61014;BME280;46899;47.542;19.082;2023-04-07T03:29:57;100186.88;;;3.14;100.00
61014;BME280;46899;47.542;19.082;2023-04-07T03:33:00;100183.47;;;3.15;100.00
61014;BME280;46899;47.542;19.082;2023-04-07T03:36:04;100185.13;;;3.21;99.67
61014;BME280;46899;47.542;19.082;2023-04-07T03:39:07;100184.28;;;3.19;98.79
61014;BME280;46899;47.542;19.082;2023-04-07T03:42:09;100179.13;;;3.19;98.97
61014;BME280;46899;47.542;19.082;2023-04-07T03:45:12;100184.28;;;3.19;100.00
61014;BME280;46899;47.542;19.082;2023-04-07T03:48:15;100180.81;;;3.24;100.00
61014;BME280;46899;47.542;19.082;2023-04-07T03:51:19;100185.09;;;3.24;100.00
61014;BME280;46899;47.542;19.082;2023-04-07T03:54:23;100186.84;;;3.22;99.71
61014;BME280;46899;47.542;19.082;2023-04-07T03:57:26;100180.84;;;3.20;100.00
61014;BME280;46899;47.542;19.082;2023-04-07T04:00:30;100188.53;;;3.21;100.00
61014;BME280;46899;47.542;19.082;2023-04-07T04:03:35;100185.03;;;3.33;100.00
61014;BME280;46899;47.542;19.082;2023-04-07T04:06:39;100199.59;;;3.34;100.00
61014;BME280;46899;47.542;19.082;2023-04-07T04:09:42;100199.59;;;3.32;100.00
61014;BME280;46899;47.542;19.082;2023-04-07T04:12:48;100201.34;;;3.29;100.00
61014;BME280;46899;47.542;19.082;2023-04-07T04:15:52;100209.94;;;3.23;100.00
61014;BME280;46899;47.542;19.082;2023-04-07T04:18:56;100211.66;;;3.24;100.00
61014;BME280;46899;47.542;19.082;2023-04-07T04:22:00;100211.62;;;3.32;100.00
61014;BME280;46899;47.542;19.082;2023-04-07T04:25:04;100208.22;;;3.27;100.00
61014;BME280;46899;47.542;19.082;2023-04-07T04:28:09;100211.62;;;3.27;100.00
61014;BME280;46899;47.542;19.082;2023-04-07T04:31:11;100213.41;;;3.22;100.00
61014;BME280;46899;47.542;19.082;2023-04-07T04:34:14;100211.59;;;3.33;100.00
61014;BME280;46899;47.542;19.082;2023-04-07T04:37:17;100215.91;;;3.31;100.00
61014;BME280;46899;47.542;19.082;2023-04-07T04:40:22;100212.47;;;3.31;100.00
61014;BME280;46899;47.542;19.082;2023-04-07T04:43:25;100208.97;;;3.41;100.00
61014;BME280;46899;47.542;19.082;2023-04-07T04:46:28;100220.91;;;3.45;100.00
61014;BME280;46899;47.542;19.082;2023-04-07T04:49:31;100220.06;;;3.46;100.00
61014;BME280;46899;47.542;19.082;2023-04-07T04:52:35;100223.37;;;3.60;100.00
61014;BME280;46899;47.542;19.082;2023-04-07T04:55:40;100232.78;;;3.58;100.00
61014;BME280;46899;47.542;19.082;2023-04-07T04:58:49;100208.88;;;3.50;100.00
61014;BME280;46899;47.542;19.082;2023-04-07T05:01:52;100225.97;;;3.56;99.93
61014;BME280;46899;47.542;19.082;2023-04-07T05:04:55;100241.38;;;3.57;100.00
61014;BME280;46899;47.542;19.082;2023-04-07T05:07:58;100243.94;;;3.62;98.31
61014;BME280;46899;47.542;19.082;2023-04-07T05:11:02;100231.00;;;3.69;98.86
61014;BME280;46899;47.542;19.082;2023-04-07T05:14:06;100238.81;;;3.57;100.00
61014;BME280;46899;47.542;19.082;2023-04-07T05:17:10;100237.84;;;3.72;98.95
61014;BME280;46899;47.542;19.082;2023-04-07T05:20:13;100238.53;;;3.87;98.83
61014;BME280;46899;47.542;19.082;2023-04-07T05:23:16;100251.09;;;4.18;97.31
61014;BME280;46899;47.542;19.082;2023-04-07T05:26:20;100246.22;;;4.65;93.01
61014;BME280;46899;47.542;19.082;2023-04-07T05:29:23;100252.88;;;4.81;93.52
61014;BME280;46899;47.542;19.082;2023-04-07T05:32:27;100252.75;;;4.90;91.58
61014;BME280;46899;47.542;19.082;2023-04-07T05:35:30;100256.22;;;4.89;92.55
61014;BME280;46899;47.542;19.082;2023-04-07T05:38:32;100262.34;;;4.82;91.82
61014;BME280;46899;47.542;19.082;2023-04-07T05:41:37;100259.97;;;4.65;89.92
61014;BME280;46899;47.542;19.082;2023-04-07T05:44:40;100253.87;;;4.72;91.31
61014;BME280;46899;47.542;19.082;2023-04-07T05:47:43;100256.38;;;4.77;91.24
61014;BME280;46899;47.542;19.082;2023-04-07T05:50:45;100257.16;;;4.83;91.58
61014;BME280;46899;47.542;19.082;2023-04-07T05:53:49;100267.47;;;4.85;90.27
61014;BME280;46899;47.542;19.082;2023-04-07T05:56:54;100263.03;;;4.93;89.94
61014;BME280;46899;47.542;19.082;2023-04-07T05:59:58;100259.94;;;4.67;93.21
61014;BME280;46899;47.542;19.082;2023-04-07T06:03:00;100262.34;;;4.80;94.59
61014;BME280;46899;47.542;19.082;2023-04-07T06:06:04;100258.03;;;4.81;94.41
61014;BME280;46899;47.542;19.082;2023-04-07T06:09:07;100257.09;;;4.90;93.15
61014;BME280;46899;47.542;19.082;2023-04-07T06:12:10;100264.91;;;4.82;91.69
61014;BME280;46899;47.542;19.082;2023-04-07T06:15:13;100260.72;;;4.75;92.95
61014;BME280;46899;47.542;19.082;2023-04-07T06:18:17;100258.16;;;4.72;93.39
61014;BME280;46899;47.542;19.082;2023-04-07T06:21:19;100265.16;;;4.64;94.03
61014;BME280;46899;47.542;19.082;2023-04-07T06:24:22;100259.94;;;4.67;91.96
61014;BME280;46899;47.542;19.082;2023-04-07T06:27:26;100267.50;;;4.80;91.83
61014;BME280;46899;47.542;19.082;2023-04-07T06:30:30;100269.16;;;4.86;91.49
61014;BME280;46899;47.542;19.082;2023-04-07T06:33:32;100269.44;;;4.62;93.90
61014;BME280;46899;47.542;19.082;2023-04-07T06:36:35;100271.50;;;4.34;94.78
61014;BME280;46899;47.542;19.082;2023-04-07T06:39:39;100277.50;;;4.35;96.70
61014;BME280;46899;47.542;19.082;2023-04-07T06:42:41;100277.50;;;4.35;96.68
61014;BME280;46899;47.542;19.082;2023-04-07T06:45:44;100281.78;;;4.37;94.53
61014;BME280;46899;47.542;19.082;2023-04-07T06:48:47;100284.28;;;4.45;97.33
61014;BME280;46899;47.542;19.082;2023-04-07T06:51:49;100293.69;;;4.47;98.72
61014;BME280;46899;47.542;19.082;2023-04-07T06:54:52;100294.59;;;4.42;97.36
61014;BME280;46899;47.542;19.082;2023-04-07T06:57:54;100290.31;;;4.41;100.00
61014;BME280;46899;47.542;19.082;2023-04-07T07:00:57;100292.81;;;4.48;98.75
61014;BME280;46899;47.542;19.082;2023-04-07T07:03:59;100300.56;;;4.45;99.54
61014;BME280;46899;47.542;19.082;2023-04-07T07:07:03;100303.09;;;4.48;99.09
61014;BME280;46899;47.542;19.082;2023-04-07T07:10:07;100305.59;;;4.56;99.09
61014;BME280;46899;47.542;19.082;2023-04-07T07:13:10;100308.00;;;4.71;100.00
61014;BME280;46899;47.542;19.082;2023-04-07T07:16:12;100320.00;;;4.72;99.92
61014;BME280;46899;47.542;19.082;2023-04-07T07:19:15;100315.72;;;4.72;99.07
61014;BME280;46899;47.542;19.082;2023-04-07T07:22:17;100322.78;;;4.55;99.86
61014;BME280;46899;47.542;19.082;2023-04-07T07:25:20;100324.53;;;4.50;100.00
61014;BME280;46899;47.542;19.082;2023-04-07T07:28:23;100325.31;;;4.60;100.00
61014;BME280;46899;47.542;19.082;2023-04-07T07:31:25;100337.12;;;4.77;98.52
61014;BME280;46899;47.542;19.082;2023-04-07T07:34:28;100339.78;;;4.73;98.05
61014;BME280;46899;47.542;19.082;2023-04-07T07:37:31;100337.19;;;4.73;100.00
61014;BME280;46899;47.542;19.082;2023-04-07T07:40:34;100334.72;;;4.62;100.00
61014;BME280;46899;47.542;19.082;2023-04-07T07:43:37;100345.97;;;4.57;100.00
61014;BME280;46899;47.542;19.082;2023-04-07T07:46:39;100339.88;;;4.62;100.00
61014;BME280;46899;47.542;19.082;2023-04-07T07:49:42;100344.97;;;4.67;100.00
61014;BME280;46899;47.542;19.082;2023-04-07T07:52:44;100348.16;;;4.89;100.00
61014;BME280;46899;47.542;19.082;2023-04-07T07:55:47;100355.72;;;5.02;100.00
61014;BME280;46899;47.542;19.082;2023-04-07T07:58:50;100363.13;;;5.28;100.00
61014;BME280;46899;47.542;19.082;2023-04-07T08:01:53;100354.47;;;5.32;100.00
61014;BME280;46899;47.542;19.082;2023-04-07T08:04:56;100370.06;;;5.24;100.00
61014;BME280;46899;47.542;19.082;2023-04-07T08:07:59;100369.50;;;5.65;100.00
61014;BME280;46899;47.542;19.082;2023-04-07T08:11:02;100371.84;;;5.79;96.38
61014;BME280;46899;47.542;19.082;2023-04-07T08:14:05;100369.28;;;5.77;97.74
61014;BME280;46899;47.542;19.082;2023-04-07T08:17:11;100363.50;;;5.62;100.00
61014;BME280;46899;47.542;19.082;2023-04-07T08:20:14;100369.19;;;5.83;100.00
61014;BME280;46899;47.542;19.082;2023-04-07T08:23:18;100377.59;;;5.99;99.12
61014;BME280;46899;47.542;19.082;2023-04-07T08:26:21;100374.97;;;6.02;98.00
61014;BME280;46899;47.542;19.082;2023-04-07T08:29:23;100378.94;;;6.19;95.66
61014;BME280;46899;47.542;19.082;2023-04-07T08:32:42;100387.44;;;6.28;89.27
61014;BME280;46899;47.542;19.082;2023-04-07T08:35:45;100384.19;;;6.16;89.29
61014;BME280;46899;47.542;19.082;2023-04-07T08:38:48;100376.25;;;6.27;92.52
61014;BME280;46899;47.542;19.082;2023-04-07T08:41:51;100384.34;;;6.06;98.83
61014;BME280;46899;47.542;19.082;2023-04-07T08:44:56;100381.62;;;6.15;93.29
61014;BME280;46899;47.542;19.082;2023-04-07T08:48:03;100386.91;;;6.09;93.41
61014;BME280;46899;47.542;19.082;2023-04-07T08:51:07;100381.50;;;6.24;96.77
61014;BME280;46899;47.542;19.082;2023-04-07T08:54:12;100387.62;;;6.17;94.14
61014;BME280;46899;47.542;19.082;2023-04-07T08:57:15;100384.12;;;6.21;97.10
61014;BME280;46899;47.542;19.082;2023-04-07T09:00:19;100383.56;;;6.51;93.57
61014;BME280;46899;47.542;19.082;2023-04-07T09:03:22;100390.91;;;6.74;92.81
61014;BME280;46899;47.542;19.082;2023-04-07T09:06:26;100383.06;;;6.78;87.35
61014;BME280;46899;47.542;19.082;2023-04-07T09:09:28;100387.13;;;6.92;90.10
61014;BME280;46899;47.542;19.082;2023-04-07T09:12:32;100391.81;;;7.16;88.92
61014;BME280;46899;47.542;19.082;2023-04-07T09:15:34;100384.88;;;7.18;88.14
61014;BME280;46899;47.542;19.082;2023-04-07T09:18:40;100385.06;;;7.48;85.46
61014;BME280;46899;47.542;19.082;2023-04-07T09:21:47;100389.13;;;7.60;83.51
61014;BME280;46899;47.542;19.082;2023-04-07T09:24:51;100386.00;;;7.44;83.57
61014;BME280;46899;47.542;19.082;2023-04-07T09:27:57;100392.31;;;7.71;86.77
61014;BME280;46899;47.542;19.082;2023-04-07T09:31:00;100387.00;;;7.77;83.00
61014;BME280;46899;47.542;19.082;2023-04-07T09:34:02;100386.00;;;7.44;83.00
61014;BME280;46899;47.542;19.082;2023-04-07T09:37:06;100387.62;;;7.50;83.50
61014;BME280;46899;47.542;19.082;2023-04-07T09:40:10;100387.84;;;7.78;89.03
61014;BME280;46899;47.542;19.082;2023-04-07T09:43:14;100386.66;;;8.27;81.64
61014;BME280;46899;47.542;19.082;2023-04-07T09:46:17;100388.81;;;8.09;82.63
61014;BME280;46899;47.542;19.082;2023-04-07T09:49:21;100386.97;;;8.14;78.34
61014;BME280;46899;47.542;19.082;2023-04-07T09:55:45;100391.28;;;8.81;77.11
61014;BME280;46899;47.542;19.082;2023-04-07T09:58:49;100394.94;;;8.75;77.10
61014;BME280;46899;47.542;19.082;2023-04-07T10:01:54;100394.00;;;8.78;72.79
61014;BME280;46899;47.542;19.082;2023-04-07T10:05:00;100393.75;;;9.16;74.14
61014;BME280;46899;47.542;19.082;2023-04-07T10:08:04;100392.97;;;9.14;77.61
61014;BME280;46899;47.542;19.082;2023-04-07T10:11:08;100393.53;;;9.25;76.88
61014;BME280;46899;47.542;19.082;2023-04-07T10:14:10;100395.78;;;9.07;78.59
61014;BME280;46899;47.542;19.082;2023-04-07T10:17:14;100393.47;;;8.96;80.73
61014;BME280;46899;47.542;19.082;2023-04-07T10:20:20;100394.62;;;9.17;76.04
61014;BME280;46899;47.542;19.082;2023-04-07T10:23:25;100399.19;;;9.09;75.26
61014;BME280;46899;47.542;19.082;2023-04-07T10:26:31;100398.28;;;8.79;74.30
61014;BME280;46899;47.542;19.082;2023-04-07T10:29:36;100399.28;;;9.06;79.83
61014;BME280;46899;47.542;19.082;2023-04-07T10:32:45;100399.13;;;9.69;70.76
61014;BME280;46899;47.542;19.082;2023-04-07T10:36:06;100395.53;;;10.00;67.79
61014;BME280;46899;47.542;19.082;2023-04-07T10:49:07;100383.63;;;9.93;69.79
61014;BME280;46899;47.542;19.082;2023-04-07T10:58:47;100393.16;;;10.20;66.06
61014;BME280;46899;47.542;19.082;2023-04-07T11:05:20;100398.00;;;9.20;67.67
61014;BME280;46899;47.542;19.082;2023-04-07T11:11:39;100402.06;;;9.86;66.40
61014;BME280;46899;47.542;19.082;2023-04-07T11:14:42;100395.12;;;10.14;66.66
61014;BME280;46899;47.542;19.082;2023-04-07T11:17:44;100397.91;;;10.34;65.81
61014;BME280;46899;47.542;19.082;2023-04-07T11:20:51;100405.53;;;9.85;66.89
61014;BME280;46899;47.542;19.082;2023-04-07T11:23:54;100400.16;;;10.18;68.47
61014;BME280;46899;47.542;19.082;2023-04-07T11:26:57;100401.12;;;10.16;67.17
61014;BME280;46899;47.542;19.082;2023-04-07T11:30:00;100398.19;;;9.71;70.15
61014;BME280;46899;47.542;19.082;2023-04-07T11:33:02;100400.84;;;9.70;67.84
61014;BME280;46899;47.542;19.082;2023-04-07T11:36:05;100406.03;;;9.11;72.64
61014;BME280;46899;47.542;19.082;2023-04-07T11:39:18;100397.59;;;9.03;71.00
61014;BME280;46899;47.542;19.082;2023-04-07T11:42:37;100402.87;;;9.00;68.59
61014;BME280;46899;47.542;19.082;2023-04-07T11:45:41;100395.84;;;9.34;72.40
61014;BME280;46899;47.542;19.082;2023-04-07T11:48:44;100403.63;;;9.34;69.37
61014;BME280;46899;47.542;19.082;2023-04-07T11:51:55;100397.84;;;9.25;69.82
61014;BME280;46899;47.542;19.082;2023-04-07T11:54:58;100389.75;;;8.75;73.45
61014;BME280;46899;47.542;19.082;2023-04-07T11:58:07;100393.81;;;8.84;71.82
61014;BME280;46899;47.542;19.082;2023-04-07T12:01:11;100395.34;;;8.91;72.90
61014;BME280;46899;47.542;19.082;2023-04-07T12:04:15;100390.41;;;8.82;69.88
61014;BME280;46899;47.542;19.082;2023-04-07T12:07:18;100395.25;;;8.30;75.72
61014;BME280;46899;47.542;19.082;2023-04-07T12:10:22;100398.09;;;8.17;75.40
61014;BME280;46899;47.542;19.082;2023-04-07T12:13:27;100392.75;;;8.25;77.20
61014;BME280;46899;47.542;19.082;2023-04-07T12:16:29;100393.78;;;8.18;75.62
61014;BME280;46899;47.542;19.082;2023-04-07T12:19:32;100402.59;;;8.11;74.37
61014;BME280;46899;47.542;19.082;2023-04-07T12:22:37;100394.88;;;8.09;76.94
61014;BME280;46899;47.542;19.082;2023-04-07T12:25:39;100393.66;;;7.87;78.73
61014;BME280;46899;47.542;19.082;2023-04-07T12:28:42;100381.41;;;7.94;77.86
61014;BME280;46899;47.542;19.082;2023-04-07T12:31:45;100383.97;;;7.95;77.84
61014;BME280;46899;47.542;19.082;2023-04-07T12:34:52;100381.97;;;7.71;77.14
61014;BME280;46899;47.542;19.082;2023-04-07T12:37:54;100381.00;;;7.75;77.57
61014;BME280;46899;47.542;19.082;2023-04-07T12:40:58;100385.09;;;7.85;79.01
61014;BME280;46899;47.542;19.082;2023-04-07T12:44:08;100385.47;;;8.05;76.19
61014;BME280;46899;47.542;19.082;2023-04-07T12:47:11;100390.25;;;7.85;75.98
61014;BME280;46899;47.542;19.082;2023-04-07T12:50:13;100390.91;;;7.95;78.72
61014;BME280;46899;47.542;19.082;2023-04-07T12:53:16;100386.47;;;8.00;78.22
61014;BME280;46899;47.542;19.082;2023-04-07T12:56:19;100388.75;;;7.75;80.69
61014;BME280;46899;47.542;19.082;2023-04-07T12:59:24;100393.06;;;7.76;80.85
61014;BME280;46899;47.542;19.082;2023-04-07T13:02:26;100393.75;;;7.84;79.45
61014;BME280;46899;47.542;19.082;2023-04-07T13:05:29;100399.06;;;7.78;79.57
61014;BME280;46899;47.542;19.082;2023-04-07T13:08:32;100401.81;;;7.72;77.28
61014;BME280;46899;47.542;19.082;2023-04-07T13:11:35;100399.47;;;7.60;78.80
61014;BME280;46899;47.542;19.082;2023-04-07T13:14:38;100396.09;;;7.58;80.89
61014;BME280;46899;47.542;19.082;2023-04-07T13:17:58;100396.34;;;7.46;80.54
61014;BME280;46899;47.542;19.082;2023-04-07T13:21:01;100398.12;;;7.42;79.30
61014;BME280;46899;47.542;19.082;2023-04-07T13:24:24;100401.53;;;7.46;80.10
61014;BME280;46899;47.542;19.082;2023-04-07T13:27:26;100396.91;;;7.58;79.96
61014;BME280;46899;47.542;19.082;2023-04-07T13:30:29;100396.91;;;7.58;80.11
61014;BME280;46899;47.542;19.082;2023-04-07T13:33:33;100396.31;;;7.47;80.98
61014;BME280;46899;47.542;19.082;2023-04-07T13:36:35;100390.09;;;7.54;78.69
61014;BME280;46899;47.542;19.082;2023-04-07T13:39:38;100393.13;;;7.73;80.64
61014;BME280;46899;47.542;19.082;2023-04-07T13:42:41;100402.72;;;7.68;78.10
61014;BME280;46899;47.542;19.082;2023-04-07T13:45:44;100408.19;;;7.56;79.14
61014;BME280;46899;47.542;19.082;2023-04-07T13:48:47;100406.00;;;7.38;81.73
61014;BME280;46899;47.542;19.082;2023-04-07T13:51:50;100406.91;;;7.35;83.48
61014;BME280;46899;47.542;19.082;2023-04-07T13:54:53;100410.16;;;7.46;83.20
61014;BME280;46899;47.542;19.082;2023-04-07T13:57:56;100404.00;;;7.50;79.86
61014;BME280;46899;47.542;19.082;2023-04-07T14:00:58;100408.00;;;7.25;82.01
61014;BME280;46899;47.542;19.082;2023-04-07T14:04:01;100408.91;;;7.23;83.86
61014;BME280;46899;47.542;19.082;2023-04-07T14:07:04;100403.91;;;7.15;83.61
61014;BME280;46899;47.542;19.082;2023-04-07T14:10:07;100404.66;;;7.19;83.38
61014;BME280;46899;47.542;19.082;2023-04-07T14:13:11;100407.34;;;7.16;84.09
61014;BME280;46899;47.542;19.082;2023-04-07T14:16:15;100406.28;;;7.24;83.83
61014;BME280;46899;47.542;19.082;2023-04-07T14:19:19;100417.97;;;7.42;82.65
61014;BME280;46899;47.542;19.082;2023-04-07T14:22:22;100408.38;;;7.47;80.36
61014;BME280;46899;47.542;19.082;2023-04-07T14:25:24;100400.72;;;7.42;82.26
61014;BME280;46899;47.542;19.082;2023-04-07T14:28:27;100407.72;;;7.37;81.09
61014;BME280;46899;47.542;19.082;2023-04-07T14:31:30;100406.69;;;7.46;79.05
61014;BME280;46899;47.542;19.082;2023-04-07T14:34:33;100412.69;;;7.48;81.49
61014;BME280;46899;47.542;19.082;2023-04-07T14:37:37;100417.81;;;7.49;83.92
61014;BME280;46899;47.542;19.082;2023-04-07T14:40:41;100418.06;;;7.39;81.87
61014;BME280;46899;47.542;19.082;2023-04-07T14:43:43;100417.06;;;7.44;82.02
61014;BME280;46899;47.542;19.082;2023-04-07T14:46:46;100413.50;;;7.50;83.34
61014;BME280;46899;47.542;19.082;2023-04-07T14:49:49;100421.00;;;7.21;82.88
61014;BME280;46899;47.542;19.082;2023-04-07T14:52:55;100413.19;;;7.25;85.73
61014;BME280;46899;47.542;19.082;2023-04-07T14:55:57;100419.13;;;7.29;85.14
61014;BME280;46899;47.542;19.082;2023-04-07T14:59:01;100418.94;;;7.38;80.84
61014;BME280;46899;47.542;19.082;2023-04-07T15:02:03;100417.50;;;7.23;81.47
61014;BME280;46899;47.542;19.082;2023-04-07T15:05:06;100418.31;;;7.27;80.52
61014;BME280;46899;47.542;19.082;2023-04-07T15:08:09;100415.88;;;7.19;82.91
61014;BME280;46899;47.542;19.082;2023-04-07T15:11:12;100421.94;;;7.18;81.82
61014;BME280;46899;47.542;19.082;2023-04-07T15:14:14;100428.13;;;7.10;81.05
61014;BME280;46899;47.542;19.082;2023-04-07T15:17:17;100427.19;;;7.15;82.52
61014;BME280;46899;47.542;19.082;2023-04-07T15:20:20;100420.97;;;7.24;81.72
61014;BME280;46899;47.542;19.082;2023-04-07T15:23:23;100427.37;;;7.06;82.20
61014;BME280;46899;47.542;19.082;2023-04-07T15:26:25;100420.44;;;7.07;83.87
61014;BME280;46899;47.542;19.082;2023-04-07T15:29:28;100421.94;;;7.18;86.31
61014;BME280;46899;47.542;19.082;2023-04-07T15:32:30;100421.44;;;7.00;83.64
61014;BME280;46899;47.542;19.082;2023-04-07T15:35:33;100421.75;;;6.84;84.34
61014;BME280;46899;47.542;19.082;2023-04-07T15:38:36;100421.62;;;6.90;84.94
61014;BME280;46899;47.542;19.082;2023-04-07T15:41:40;100419.94;;;6.89;85.15
61014;BME280;46899;47.542;19.082;2023-04-07T15:44:43;100422.47;;;6.91;86.77
61014;BME280;46899;47.542;19.082;2023-04-07T15:47:45;100424.09;;;6.95;86.22
61014;BME280;46899;47.542;19.082;2023-04-07T15:50:48;100423.44;;;6.85;85.08
61014;BME280;46899;47.542;19.082;2023-04-07T15:53:51;100426.06;;;6.84;86.54
61014;BME280;46899;47.542;19.082;2023-04-07T15:56:54;100427.81;;;6.82;87.80
61014;BME280;46899;47.542;19.082;2023-04-07T15:59:57;100431.44;;;6.73;88.16
61014;BME280;46899;47.542;19.082;2023-04-07T16:03:02;100433.25;;;6.67;88.23
61014;BME280;46899;47.542;19.082;2023-04-07T16:06:06;100436.81;;;6.61;87.85
61014;BME280;46899;47.542;19.082;2023-04-07T16:09:08;100438.62;;;6.55;90.01
61014;BME280;46899;47.542;19.082;2023-04-07T16:12:11;100436.91;;;6.55;90.91
61014;BME280;46899;47.542;19.082;2023-04-07T16:15:13;100433.44;;;6.58;89.96
61014;BME280;46899;47.542;19.082;2023-04-07T16:18:24;100438.75;;;6.49;89.28
61014;BME280;46899;47.542;19.082;2023-04-07T16:21:26;100438.75;;;6.49;90.40
61014;BME280;46899;47.542;19.082;2023-04-07T16:24:29;100443.16;;;6.44;89.81